sensor_id;sensor_type;location;lat;lon;timestamp;P1;durP1;ratioP1;P2;durP2;ratioP2
73672;SDS011;61972;19.480;-99.240;2023-02-15T00:01:30;7.73;;;3.40;;
73672;SDS011;61972;19.480;-99.240;2023-02-15T00:03:57;6.68;;;3.15;;
73672;SDS011;61972;19.480;-99.240;2023-02-15T00:06:23;8.05;;;3.40;;
73672;SDS011;61972;19.480;-99.240;2023-02-15T00:08:50;4.78;;;2.90;;
73672;SDS011;61972;19.480;-99.240;2023-02-15T00:11:17;9.77;;;2.97;;
73672;SDS011;61972;19.480;-99.240;2023-02-15T00:14:03;6.93;;;3.10;;
73672;SDS011;61972;19.480;-99.240;2023-02-15T00:16:31;6.53;;;3.00;;
73672;SDS011;61972;19.480;-99.240;2023-02-15T00:18:57;4.70;;;3.10;;
73672;SDS011;61972;19.480;-99.240;2023-02-15T00:21:27;4.97;;;3.30;;
73672;SDS011;61972;19.480;-99.240;2023-02-15T00:23:57;5.78;;;3.10;;
73672;SDS011;61972;19.480;-99.240;2023-02-15T00:26:25;8.43;;;2.97;;
73672;SDS011;61972;19.480;-99.240;2023-02-15T00:28:52;8.82;;;3.20;;
73672;SDS011;61972;19.480;-99.240;2023-02-15T00:31:19;6.53;;;2.90;;
73672;SDS011;61972;19.480;-99.240;2023-02-15T00:33:45;7.35;;;3.10;;
73672;SDS011;61972;19.480;-99.240;2023-02-15T00:36:11;6.50;;;3.08;;
73672;SDS011;61972;19.480;-99.240;2023-02-15T00:38:38;5.97;;;2.80;;
73672;SDS011;61972;19.480;-99.240;2023-02-15T00:41:05;8.60;;;3.10;;
73672;SDS011;61972;19.480;-99.240;2023-02-15T00:43:33;8.10;;;3.42;;
73672;SDS011;61972;19.480;-99.240;2023-02-15T00:46:00;6.35;;;2.78;;
73672;SDS011;61972;19.480;-99.240;2023-02-15T00:48:28;6.55;;;3.00;;
73672;SDS011;61972;19.480;-99.240;2023-02-15T00:50:55;7.97;;;3.30;;
73672;SDS011;61972;19.480;-99.240;2023-02-15T00:53:23;9.73;;;2.90;;
73672;SDS011;61972;19.480;-99.240;2023-02-15T00:55:53;5.97;;;2.92;;
73672;SDS011;61972;19.480;-99.240;2023-02-15T00:58:20;6.72;;;3.08;;
73672;SDS011;61972;19.480;-99.240;2023-02-15T01:00:49;7.43;;;3.20;;
73672;SDS011;61972;19.480;-99.240;2023-02-15T01:03:16;7.53;;;3.07;;
73672;SDS011;61972;19.480;-99.240;2023-02-15T01:05:44;7.53;;;2.80;;
73672;SDS011;61972;19.480;-99.240;2023-02-15T01:08:12;8.63;;;3.03;;
73672;SDS011;61972;19.480;-99.240;2023-02-15T01:10:38;6.05;;;2.90;;
73672;SDS011;61972;19.480;-99.240;2023-02-15T01:13:05;7.55;;;2.85;;
73672;SDS011;61972;19.480;-99.240;2023-02-15T01:15:31;7.43;;;2.93;;
73672;SDS011;61972;19.480;-99.240;2023-02-15T01:18:02;5.43;;;3.17;;
73672;SDS011;61972;19.480;-99.240;2023-02-15T01:20:28;7.28;;;2.97;;
73672;SDS011;61972;19.480;-99.240;2023-02-15T01:22:56;6.80;;;2.97;;
73672;SDS011;61972;19.480;-99.240;2023-02-15T01:25:23;5.88;;;3.30;;
73672;SDS011;61972;19.480;-99.240;2023-02-15T01:27:50;7.07;;;3.07;;
73672;SDS011;61972;19.480;-99.240;2023-02-15T01:30:16;5.20;;;2.80;;
73672;SDS011;61972;19.480;-99.240;2023-02-15T01:32:43;5.28;;;3.00;;
73672;SDS011;61972;19.480;-99.240;2023-02-15T01:35:09;6.47;;;2.85;;
73672;SDS011;61972;19.480;-99.240;2023-02-15T01:37:36;8.85;;;3.30;;
73672;SDS011;61972;19.480;-99.240;2023-02-15T01:40:03;4.07;;;2.87;;
73672;SDS011;61972;19.480;-99.240;2023-02-15T01:42:31;6.78;;;2.70;;
73672;SDS011;61972;19.480;-99.240;2023-02-15T01:44:58;5.20;;;3.00;;
73672;SDS011;61972;19.480;-99.240;2023-02-15T01:47:39;6.72;;;3.17;;
73672;SDS011;61972;19.480;-99.240;2023-02-15T01:52:41;5.13;;;3.10;;
73672;SDS011;61972;19.480;-99.240;2023-02-15T01:55:30;5.63;;;3.33;;
73672;SDS011;61972;19.480;-99.240;2023-02-15T01:58:03;5.68;;;3.20;;
73672;SDS011;61972;19.480;-99.240;2023-02-15T02:00:29;5.38;;;3.20;;
73672;SDS011;61972;19.480;-99.240;2023-02-15T02:02:57;9.93;;;3.60;;
73672;SDS011;61972;19.480;-99.240;2023-02-15T02:05:23;4.73;;;2.90;;
73672;SDS011;61972;19.480;-99.240;2023-02-15T02:07:50;5.93;;;3.00;;
73672;SDS011;61972;19.480;-99.240;2023-02-15T02:10:19;6.25;;;3.00;;
73672;SDS011;61972;19.480;-99.240;2023-02-15T02:12:48;7.65;;;2.75;;
73672;SDS011;61972;19.480;-99.240;2023-02-15T02:15:17;5.13;;;3.20;;
73672;SDS011;61972;19.480;-99.240;2023-02-15T02:20:30;5.65;;;3.17;;
73672;SDS011;61972;19.480;-99.240;2023-02-15T02:24:12;7.55;;;3.20;;
73672;SDS011;61972;19.480;-99.240;2023-02-15T02:40:40;6.72;;;3.13;;
73672;SDS011;61972;19.480;-99.240;2023-02-15T02:43:20;7.85;;;3.30;;
73672;SDS011;61972;19.480;-99.240;2023-02-15T02:45:55;8.10;;;2.90;;
73672;SDS011;61972;19.480;-99.240;2023-02-15T02:48:29;8.80;;;3.08;;
73672;SDS011;61972;19.480;-99.240;2023-02-15T02:50:58;5.07;;;3.22;;
73672;SDS011;61972;19.480;-99.240;2023-02-15T02:53:24;6.50;;;2.83;;
73672;SDS011;61972;19.480;-99.240;2023-02-15T02:58:26;6.10;;;3.10;;
73672;SDS011;61972;19.480;-99.240;2023-02-15T03:01:00;5.05;;;2.92;;
73672;SDS011;61972;19.480;-99.240;2023-02-15T03:03:47;6.30;;;3.10;;
73672;SDS011;61972;19.480;-99.240;2023-02-15T03:09:07;4.80;;;3.03;;
73672;SDS011;61972;19.480;-99.240;2023-02-15T03:11:42;7.90;;;3.27;;
73672;SDS011;61972;19.480;-99.240;2023-02-15T03:14:09;5.80;;;3.03;;
73672;SDS011;61972;19.480;-99.240;2023-02-15T03:16:38;8.52;;;3.55;;
73672;SDS011;61972;19.480;-99.240;2023-02-15T03:19:14;7.00;;;3.03;;
73672;SDS011;61972;19.480;-99.240;2023-02-15T03:21:47;6.97;;;3.25;;
73672;SDS011;61972;19.480;-99.240;2023-02-15T03:24:23;7.07;;;3.20;;
73672;SDS011;61972;19.480;-99.240;2023-02-15T03:26:53;9.63;;;3.55;;
73672;SDS011;61972;19.480;-99.240;2023-02-15T03:29:22;9.10;;;3.50;;
73672;SDS011;61972;19.480;-99.240;2023-02-15T03:31:53;10.50;;;3.70;;
73672;SDS011;61972;19.480;-99.240;2023-02-15T03:34:23;9.32;;;3.88;;
73672;SDS011;61972;19.480;-99.240;2023-02-15T03:36:52;6.40;;;3.37;;
73672;SDS011;61972;19.480;-99.240;2023-02-15T03:42:11;7.65;;;3.50;;
73672;SDS011;61972;19.480;-99.240;2023-02-15T03:47:17;5.78;;;3.10;;
73672;SDS011;61972;19.480;-99.240;2023-02-15T03:49:54;7.07;;;3.23;;
73672;SDS011;61972;19.480;-99.240;2023-02-15T03:52:26;5.65;;;3.25;;
73672;SDS011;61972;19.480;-99.240;2023-02-15T03:54:54;8.10;;;3.50;;
73672;SDS011;61972;19.480;-99.240;2023-02-15T03:57:22;7.93;;;3.25;;
73672;SDS011;61972;19.480;-99.240;2023-02-15T04:00:14;6.85;;;3.60;;
73672;SDS011;61972;19.480;-99.240;2023-02-15T04:05:42;8.45;;;3.13;;
73672;SDS011;61972;19.480;-99.240;2023-02-15T04:08:12;7.85;;;3.30;;
73672;SDS011;61972;19.480;-99.240;2023-02-15T04:10:44;6.47;;;2.95;;
73672;SDS011;61972;19.480;-99.240;2023-02-15T04:13:31;7.70;;;3.20;;
73672;SDS011;61972;19.480;-99.240;2023-02-15T04:16:07;7.17;;;3.13;;
73672;SDS011;61972;19.480;-99.240;2023-02-15T04:18:59;8.70;;;3.10;;
73672;SDS011;61972;19.480;-99.240;2023-02-15T04:21:51;6.80;;;3.50;;
73672;SDS011;61972;19.480;-99.240;2023-02-15T04:24:39;7.03;;;3.17;;
73672;SDS011;61972;19.480;-99.240;2023-02-15T04:27:24;9.00;;;3.40;;
73672;SDS011;61972;19.480;-99.240;2023-02-15T04:29:55;8.03;;;3.03;;
73672;SDS011;61972;19.480;-99.240;2023-02-15T04:32:24;6.68;;;3.40;;
73672;SDS011;61972;19.480;-99.240;2023-02-15T04:38:14;6.15;;;3.20;;
73672;SDS011;61972;19.480;-99.240;2023-02-15T04:40:40;7.90;;;3.40;;
73672;SDS011;61972;19.480;-99.240;2023-02-15T04:43:06;6.93;;;3.20;;
73672;SDS011;61972;19.480;-99.240;2023-02-15T04:45:33;7.57;;;3.78;;
73672;SDS011;61972;19.480;-99.240;2023-02-15T04:47:59;6.78;;;3.28;;
73672;SDS011;61972;19.480;-99.240;2023-02-15T04:50:38;7.82;;;3.17;;
73672;SDS011;61972;19.480;-99.240;2023-02-15T04:53:05;6.07;;;3.40;;
73672;SDS011;61972;19.480;-99.240;2023-02-15T04:55:40;10.57;;;3.60;;
73672;SDS011;61972;19.480;-99.240;2023-02-15T04:58:09;7.10;;;3.60;;
73672;SDS011;61972;19.480;-99.240;2023-02-15T05:00:35;7.18;;;3.30;;
73672;SDS011;61972;19.480;-99.240;2023-02-15T05:03:02;7.15;;;3.15;;
73672;SDS011;61972;19.480;-99.240;2023-02-15T05:09:03;5.70;;;3.10;;
73672;SDS011;61972;19.480;-99.240;2023-02-15T05:11:29;5.88;;;3.42;;
73672;SDS011;61972;19.480;-99.240;2023-02-15T05:13:55;5.53;;;3.38;;
73672;SDS011;61972;19.480;-99.240;2023-02-15T05:16:30;6.35;;;3.40;;
73672;SDS011;61972;19.480;-99.240;2023-02-15T05:22:28;8.13;;;2.97;;
73672;SDS011;61972;19.480;-99.240;2023-02-15T05:25:37;4.80;;;2.80;;
73672;SDS011;61972;19.480;-99.240;2023-02-15T05:28:40;6.68;;;3.03;;
73672;SDS011;61972;19.480;-99.240;2023-02-15T05:31:08;5.43;;;3.08;;
73672;SDS011;61972;19.480;-99.240;2023-02-15T05:33:47;6.78;;;3.10;;
73672;SDS011;61972;19.480;-99.240;2023-02-15T05:36:16;6.60;;;3.10;;
73672;SDS011;61972;19.480;-99.240;2023-02-15T05:38:42;5.70;;;3.10;;
73672;SDS011;61972;19.480;-99.240;2023-02-15T05:41:18;6.15;;;3.17;;
73672;SDS011;61972;19.480;-99.240;2023-02-15T05:44:31;5.22;;;2.72;;
73672;SDS011;61972;19.480;-99.240;2023-02-15T05:46:57;8.55;;;3.28;;
73672;SDS011;61972;19.480;-99.240;2023-02-15T05:49:23;6.17;;;2.60;;
73672;SDS011;61972;19.480;-99.240;2023-02-15T05:51:49;5.10;;;2.80;;
73672;SDS011;61972;19.480;-99.240;2023-02-15T05:54:15;5.05;;;2.95;;
73672;SDS011;61972;19.480;-99.240;2023-02-15T05:56:41;5.03;;;2.58;;
73672;SDS011;61972;19.480;-99.240;2023-02-15T05:59:07;5.90;;;2.92;;
73672;SDS011;61972;19.480;-99.240;2023-02-15T06:01:33;4.53;;;2.57;;
73672;SDS011;61972;19.480;-99.240;2023-02-15T06:03:59;5.15;;;2.90;;
73672;SDS011;61972;19.480;-99.240;2023-02-15T06:06:25;6.03;;;2.90;;
73672;SDS011;61972;19.480;-99.240;2023-02-15T06:08:52;5.20;;;2.42;;
73672;SDS011;61972;19.480;-99.240;2023-02-15T06:11:18;7.00;;;2.83;;
73672;SDS011;61972;19.480;-99.240;2023-02-15T06:13:44;3.67;;;2.27;;
73672;SDS011;61972;19.480;-99.240;2023-02-15T06:16:10;4.97;;;2.50;;
73672;SDS011;61972;19.480;-99.240;2023-02-15T06:18:36;6.43;;;2.78;;
73672;SDS011;61972;19.480;-99.240;2023-02-15T06:21:02;6.38;;;2.45;;
73672;SDS011;61972;19.480;-99.240;2023-02-15T06:23:28;5.15;;;2.50;;
73672;SDS011;61972;19.480;-99.240;2023-02-15T06:25:54;4.50;;;2.60;;
73672;SDS011;61972;19.480;-99.240;2023-02-15T06:28:20;5.55;;;2.50;;
73672;SDS011;61972;19.480;-99.240;2023-02-15T06:30:46;4.38;;;2.47;;
73672;SDS011;61972;19.480;-99.240;2023-02-15T06:33:13;3.72;;;2.10;;
73672;SDS011;61972;19.480;-99.240;2023-02-15T06:35:39;4.63;;;2.47;;
73672;SDS011;61972;19.480;-99.240;2023-02-15T06:38:05;4.03;;;2.27;;
73672;SDS011;61972;19.480;-99.240;2023-02-15T06:40:31;5.07;;;2.20;;
73672;SDS011;61972;19.480;-99.240;2023-02-15T06:42:57;4.47;;;2.28;;
73672;SDS011;61972;19.480;-99.240;2023-02-15T06:45:23;5.10;;;2.65;;
73672;SDS011;61972;19.480;-99.240;2023-02-15T06:47:49;5.40;;;2.60;;
73672;SDS011;61972;19.480;-99.240;2023-02-15T06:50:15;3.97;;;2.33;;
73672;SDS011;61972;19.480;-99.240;2023-02-15T06:52:41;5.72;;;2.50;;
73672;SDS011;61972;19.480;-99.240;2023-02-15T06:55:08;6.18;;;2.72;;
73672;SDS011;61972;19.480;-99.240;2023-02-15T06:57:34;6.00;;;2.80;;
73672;SDS011;61972;19.480;-99.240;2023-02-15T07:00:00;6.68;;;3.08;;
73672;SDS011;61972;19.480;-99.240;2023-02-15T07:02:30;9.03;;;3.03;;
73672;SDS011;61972;19.480;-99.240;2023-02-15T07:04:56;6.30;;;3.25;;
73672;SDS011;61972;19.480;-99.240;2023-02-15T07:07:22;6.60;;;3.92;;
73672;SDS011;61972;19.480;-99.240;2023-02-15T07:09:48;7.45;;;3.80;;
73672;SDS011;61972;19.480;-99.240;2023-02-15T07:12:14;8.50;;;3.83;;
73672;SDS011;61972;19.480;-99.240;2023-02-15T07:14:59;7.97;;;4.17;;
73672;SDS011;61972;19.480;-99.240;2023-02-15T07:17:25;7.82;;;4.30;;
73672;SDS011;61972;19.480;-99.240;2023-02-15T07:19:54;14.02;;;4.97;;
73672;SDS011;61972;19.480;-99.240;2023-02-15T07:22:20;9.55;;;4.82;;
73672;SDS011;61972;19.480;-99.240;2023-02-15T07:24:46;11.35;;;5.22;;
73672;SDS011;61972;19.480;-99.240;2023-02-15T07:27:14;13.80;;;4.87;;
73672;SDS011;61972;19.480;-99.240;2023-02-15T07:29:40;11.85;;;5.20;;
73672;SDS011;61972;19.480;-99.240;2023-02-15T07:32:06;9.50;;;4.90;;
73672;SDS011;61972;19.480;-99.240;2023-02-15T07:34:32;10.05;;;5.00;;
73672;SDS011;61972;19.480;-99.240;2023-02-15T07:36:58;10.23;;;4.80;;
73672;SDS011;61972;19.480;-99.240;2023-02-15T07:39:25;12.30;;;4.80;;
73672;SDS011;61972;19.480;-99.240;2023-02-15T07:41:51;11.40;;;4.60;;
73672;SDS011;61972;19.480;-99.240;2023-02-15T07:44:17;11.15;;;5.18;;
73672;SDS011;61972;19.480;-99.240;2023-02-15T07:46:43;11.20;;;4.70;;
73672;SDS011;61972;19.480;-99.240;2023-02-15T07:49:09;9.63;;;4.55;;
73672;SDS011;61972;19.480;-99.240;2023-02-15T07:51:35;8.53;;;4.07;;
73672;SDS011;61972;19.480;-99.240;2023-02-15T07:54:02;7.25;;;4.10;;
73672;SDS011;61972;19.480;-99.240;2023-02-15T07:56:28;10.35;;;4.68;;
73672;SDS011;61972;19.480;-99.240;2023-02-15T07:58:54;10.50;;;3.90;;
73672;SDS011;61972;19.480;-99.240;2023-02-15T08:01:26;10.32;;;4.57;;
73672;SDS011;61972;19.480;-99.240;2023-02-15T08:03:56;6.87;;;3.97;;
73672;SDS011;61972;19.480;-99.240;2023-02-15T08:06:23;8.43;;;3.92;;
73672;SDS011;61972;19.480;-99.240;2023-02-15T08:08:51;8.85;;;4.32;;
73672;SDS011;61972;19.480;-99.240;2023-02-15T08:11:19;9.55;;;4.93;;
73672;SDS011;61972;19.480;-99.240;2023-02-15T08:14:00;9.43;;;4.97;;
73672;SDS011;61972;19.480;-99.240;2023-02-15T08:16:31;11.13;;;5.13;;
73672;SDS011;61972;19.480;-99.240;2023-02-15T08:19:06;13.63;;;5.68;;
73672;SDS011;61972;19.480;-99.240;2023-02-15T08:21:41;13.07;;;6.65;;
73672;SDS011;61972;19.480;-99.240;2023-02-15T08:24:15;11.75;;;6.30;;
73672;SDS011;61972;19.480;-99.240;2023-02-15T08:26:43;12.40;;;6.68;;
73672;SDS011;61972;19.480;-99.240;2023-02-15T08:29:12;16.37;;;6.93;;
73672;SDS011;61972;19.480;-99.240;2023-02-15T08:31:39;16.25;;;6.88;;
73672;SDS011;61972;19.480;-99.240;2023-02-15T08:34:07;14.48;;;7.35;;
73672;SDS011;61972;19.480;-99.240;2023-02-15T08:36:35;16.15;;;6.80;;
73672;SDS011;61972;19.480;-99.240;2023-02-15T08:39:02;14.05;;;6.93;;
73672;SDS011;61972;19.480;-99.240;2023-02-15T08:41:31;17.17;;;6.97;;
73672;SDS011;61972;19.480;-99.240;2023-02-15T08:44:02;13.25;;;6.75;;
73672;SDS011;61972;19.480;-99.240;2023-02-15T08:46:34;11.88;;;6.57;;
73672;SDS011;61972;19.480;-99.240;2023-02-15T08:49:02;15.60;;;6.38;;
73672;SDS011;61972;19.480;-99.240;2023-02-15T08:51:29;14.02;;;6.55;;
73672;SDS011;61972;19.480;-99.240;2023-02-15T08:53:58;11.27;;;6.27;;
73672;SDS011;61972;19.480;-99.240;2023-02-15T08:56:27;11.20;;;6.05;;
73672;SDS011;61972;19.480;-99.240;2023-02-15T08:58:56;9.48;;;5.45;;
73672;SDS011;61972;19.480;-99.240;2023-02-15T09:01:24;11.35;;;5.63;;
73672;SDS011;61972;19.480;-99.240;2023-02-15T09:03:52;13.07;;;5.70;;
73672;SDS011;61972;19.480;-99.240;2023-02-15T09:06:21;10.00;;;5.20;;
73672;SDS011;61972;19.480;-99.240;2023-02-15T09:08:48;10.75;;;5.47;;
73672;SDS011;61972;19.480;-99.240;2023-02-15T09:11:20;9.57;;;5.40;;
73672;SDS011;61972;19.480;-99.240;2023-02-15T09:13:49;11.23;;;5.18;;
73672;SDS011;61972;19.480;-99.240;2023-02-15T09:16:18;9.65;;;5.32;;
73672;SDS011;61972;19.480;-99.240;2023-02-15T09:18:46;9.97;;;4.90;;
73672;SDS011;61972;19.480;-99.240;2023-02-15T09:21:13;8.57;;;4.70;;
73672;SDS011;61972;19.480;-99.240;2023-02-15T09:23:42;10.35;;;4.60;;
73672;SDS011;61972;19.480;-99.240;2023-02-15T09:26:09;9.95;;;4.60;;
73672;SDS011;61972;19.480;-99.240;2023-02-15T09:28:40;11.35;;;5.00;;
73672;SDS011;61972;19.480;-99.240;2023-02-15T09:31:11;9.13;;;4.50;;
73672;SDS011;61972;19.480;-99.240;2023-02-15T09:33:39;9.45;;;4.82;;
73672;SDS011;61972;19.480;-99.240;2023-02-15T09:36:13;10.07;;;4.68;;
73672;SDS011;61972;19.480;-99.240;2023-02-15T09:38:41;9.00;;;4.53;;
73672;SDS011;61972;19.480;-99.240;2023-02-15T09:41:14;9.05;;;4.45;;
73672;SDS011;61972;19.480;-99.240;2023-02-15T09:52:14;8.23;;;3.95;;
73672;SDS011;61972;19.480;-99.240;2023-02-15T09:57:56;6.67;;;3.53;;
73672;SDS011;61972;19.480;-99.240;2023-02-15T10:08:40;8.85;;;2.92;;
73672;SDS011;61972;19.480;-99.240;2023-02-15T10:19:45;8.02;;;2.80;;
73672;SDS011;61972;19.480;-99.240;2023-02-15T10:25:46;5.73;;;2.90;;
73672;SDS011;61972;19.480;-99.240;2023-02-15T10:27:57;7.28;;;2.78;;
73672;SDS011;61972;19.480;-99.240;2023-02-15T10:30:34;8.27;;;2.65;;
73672;SDS011;61972;19.480;-99.240;2023-02-15T10:33:54;7.20;;;2.80;;
73672;SDS011;61972;19.480;-99.240;2023-02-15T10:36:11;7.30;;;2.47;;
73672;SDS011;61972;19.480;-99.240;2023-02-15T10:56:09;5.35;;;2.47;;
73672;SDS011;61972;19.480;-99.240;2023-02-15T10:58:59;4.43;;;2.30;;
73672;SDS011;61972;19.480;-99.240;2023-02-15T11:06:55;4.37;;;2.40;;
73672;SDS011;61972;19.480;-99.240;2023-02-15T11:09:27;4.20;;;2.28;;
73672;SDS011;61972;19.480;-99.240;2023-02-15T11:12:01;4.35;;;2.50;;
73672;SDS011;61972;19.480;-99.240;2023-02-15T11:14:33;4.38;;;2.15;;
73672;SDS011;61972;19.480;-99.240;2023-02-15T11:17:15;5.05;;;2.40;;
73672;SDS011;61972;19.480;-99.240;2023-02-15T11:22:34;4.78;;;1.92;;
73672;SDS011;61972;19.480;-99.240;2023-02-15T11:25:01;4.00;;;2.40;;
73672;SDS011;61972;19.480;-99.240;2023-02-15T11:27:40;3.75;;;2.13;;
73672;SDS011;61972;19.480;-99.240;2023-02-15T11:30:10;5.13;;;2.33;;
73672;SDS011;61972;19.480;-99.240;2023-02-15T11:32:40;5.10;;;2.33;;
73672;SDS011;61972;19.480;-99.240;2023-02-15T11:40:41;4.85;;;2.10;;
73672;SDS011;61972;19.480;-99.240;2023-02-15T11:46:04;3.70;;;2.23;;
73672;SDS011;61972;19.480;-99.240;2023-02-15T11:48:31;3.47;;;2.20;;
73672;SDS011;61972;19.480;-99.240;2023-02-15T11:50:58;4.47;;;2.47;;
73672;SDS011;61972;19.480;-99.240;2023-02-15T11:53:26;3.63;;;2.20;;
73672;SDS011;61972;19.480;-99.240;2023-02-15T11:55:56;3.72;;;2.38;;
73672;SDS011;61972;19.480;-99.240;2023-02-15T12:00:54;5.00;;;2.15;;
73672;SDS011;61972;19.480;-99.240;2023-02-15T12:03:48;3.60;;;2.15;;
73672;SDS011;61972;19.480;-99.240;2023-02-15T12:06:27;3.35;;;1.95;;
73672;SDS011;61972;19.480;-99.240;2023-02-15T12:09:06;3.25;;;2.00;;
73672;SDS011;61972;19.480;-99.240;2023-02-15T12:11:53;3.37;;;2.10;;
73672;SDS011;61972;19.480;-99.240;2023-02-15T12:14:19;4.85;;;2.22;;
73672;SDS011;61972;19.480;-99.240;2023-02-15T12:16:49;3.58;;;2.30;;
73672;SDS011;61972;19.480;-99.240;2023-02-15T12:19:31;5.05;;;2.00;;
73672;SDS011;61972;19.480;-99.240;2023-02-15T12:22:20;3.03;;;1.90;;
73672;SDS011;61972;19.480;-99.240;2023-02-15T12:24:56;3.43;;;1.90;;
73672;SDS011;61972;19.480;-99.240;2023-02-15T12:27:27;3.20;;;1.85;;
73672;SDS011;61972;19.480;-99.240;2023-02-15T12:29:59;3.10;;;1.80;;
73672;SDS011;61972;19.480;-99.240;2023-02-15T12:32:35;4.25;;;2.20;;
73672;SDS011;61972;19.480;-99.240;2023-02-15T12:35:13;3.95;;;2.20;;
73672;SDS011;61972;19.480;-99.240;2023-02-15T12:38:03;3.90;;;2.10;;
73672;SDS011;61972;19.480;-99.240;2023-02-15T12:40:56;3.65;;;1.63;;
73672;SDS011;61972;19.480;-99.240;2023-02-15T12:43:32;3.33;;;1.90;;
73672;SDS011;61972;19.480;-99.240;2023-02-15T12:48:44;3.63;;;2.08;;
73672;SDS011;61972;19.480;-99.240;2023-02-15T12:51:13;3.37;;;1.80;;
73672;SDS011;61972;19.480;-99.240;2023-02-15T12:53:40;3.50;;;2.00;;
73672;SDS011;61972;19.480;-99.240;2023-02-15T12:56:07;3.45;;;1.88;;
73672;SDS011;61972;19.480;-99.240;2023-02-15T12:58:36;3.50;;;1.70;;
73672;SDS011;61972;19.480;-99.240;2023-02-15T13:01:08;3.08;;;1.90;;
73672;SDS011;61972;19.480;-99.240;2023-02-15T13:06:54;4.85;;;2.05;;
73672;SDS011;61972;19.480;-99.240;2023-02-15T13:09:26;7.00;;;2.30;;
73672;SDS011;61972;19.480;-99.240;2023-02-15T13:14:52;4.60;;;2.25;;
73672;SDS011;61972;19.480;-99.240;2023-02-15T13:17:27;8.13;;;2.40;;
73672;SDS011;61972;19.480;-99.240;2023-02-15T13:20:06;4.20;;;2.40;;
73672;SDS011;61972;19.480;-99.240;2023-02-15T13:22:44;4.70;;;2.60;;
73672;SDS011;61972;19.480;-99.240;2023-02-15T13:25:22;5.00;;;2.65;;
73672;SDS011;61972;19.480;-99.240;2023-02-15T13:28:03;5.72;;;2.50;;
73672;SDS011;61972;19.480;-99.240;2023-02-15T13:30:32;7.43;;;3.00;;
73672;SDS011;61972;19.480;-99.240;2023-02-15T13:33:03;4.93;;;2.40;;
73672;SDS011;61972;19.480;-99.240;2023-02-15T13:36:04;6.30;;;2.80;;
73672;SDS011;61972;19.480;-99.240;2023-02-15T13:41:33;7.57;;;2.90;;
73672;SDS011;61972;19.480;-99.240;2023-02-15T13:44:25;6.67;;;2.90;;
73672;SDS011;61972;19.480;-99.240;2023-02-15T13:47:09;6.05;;;3.17;;
73672;SDS011;61972;19.480;-99.240;2023-02-15T13:52:51;6.70;;;3.10;;
73672;SDS011;61972;19.480;-99.240;2023-02-15T14:00:52;8.48;;;3.38;;
73672;SDS011;61972;19.480;-99.240;2023-02-15T14:20:09;6.85;;;2.85;;
73672;SDS011;61972;19.480;-99.240;2023-02-15T14:23:20;7.20;;;2.58;;
73672;SDS011;61972;19.480;-99.240;2023-02-15T14:28:59;4.85;;;2.53;;
73672;SDS011;61972;19.480;-99.240;2023-02-15T14:31:34;6.70;;;2.88;;
73672;SDS011;61972;19.480;-99.240;2023-02-15T14:34:05;6.57;;;2.90;;
73672;SDS011;61972;19.480;-99.240;2023-02-15T14:36:42;6.43;;;3.00;;
73672;SDS011;61972;19.480;-99.240;2023-02-15T14:42:15;6.95;;;2.80;;
73672;SDS011;61972;19.480;-99.240;2023-02-15T14:47:36;7.78;;;2.90;;
73672;SDS011;61972;19.480;-99.240;2023-02-15T14:56:32;6.03;;;3.03;;
73672;SDS011;61972;19.480;-99.240;2023-02-15T15:01:16;7.72;;;3.08;;
73672;SDS011;61972;19.480;-99.240;2023-02-15T15:03:53;5.97;;;2.95;;
73672;SDS011;61972;19.480;-99.240;2023-02-15T15:06:26;7.73;;;3.27;;
73672;SDS011;61972;19.480;-99.240;2023-02-15T15:09:00;6.05;;;3.13;;
73672;SDS011;61972;19.480;-99.240;2023-02-15T15:11:48;5.78;;;2.97;;
73672;SDS011;61972;19.480;-99.240;2023-02-15T15:16:58;7.25;;;3.10;;
73672;SDS011;61972;19.480;-99.240;2023-02-15T15:22:28;7.75;;;3.55;;
73672;SDS011;61972;19.480;-99.240;2023-02-15T15:24:57;5.32;;;3.25;;
73672;SDS011;61972;19.480;-99.240;2023-02-15T15:35:36;6.72;;;3.50;;
73672;SDS011;61972;19.480;-99.240;2023-02-15T15:42:04;7.75;;;3.78;;
73672;SDS011;61972;19.480;-99.240;2023-02-15T15:44:49;7.60;;;3.92;;
73672;SDS011;61972;19.480;-99.240;2023-02-15T15:47:48;6.87;;;3.40;;
73672;SDS011;61972;19.480;-99.240;2023-02-15T15:50:23;8.02;;;3.90;;
73672;SDS011;61972;19.480;-99.240;2023-02-15T15:52:50;7.38;;;3.70;;
73672;SDS011;61972;19.480;-99.240;2023-02-15T15:55:23;7.68;;;4.07;;
73672;SDS011;61972;19.480;-99.240;2023-02-15T15:57:59;7.25;;;4.18;;
73672;SDS011;61972;19.480;-99.240;2023-02-15T16:05:50;7.07;;;4.07;;
73672;SDS011;61972;19.480;-99.240;2023-02-15T16:08:31;8.88;;;3.90;;
73672;SDS011;61972;19.480;-99.240;2023-02-15T16:11:19;8.07;;;4.05;;
73672;SDS011;61972;19.480;-99.240;2023-02-15T16:13:48;7.17;;;4.17;;
73672;SDS011;61972;19.480;-99.240;2023-02-15T16:16:20;8.23;;;4.35;;
73672;SDS011;61972;19.480;-99.240;2023-02-15T16:18:49;9.23;;;4.43;;
73672;SDS011;61972;19.480;-99.240;2023-02-15T16:21:19;7.28;;;3.95;;
73672;SDS011;61972;19.480;-99.240;2023-02-15T16:29:17;9.38;;;4.00;;
73672;SDS011;61972;19.480;-99.240;2023-02-15T16:31:58;9.07;;;4.25;;
73672;SDS011;61972;19.480;-99.240;2023-02-15T16:34:31;7.22;;;4.00;;
73672;SDS011;61972;19.480;-99.240;2023-02-15T16:37:17;9.50;;;4.75;;
73672;SDS011;61972;19.480;-99.240;2023-02-15T16:39:47;6.83;;;3.90;;
73672;SDS011;61972;19.480;-99.240;2023-02-15T16:42:13;8.70;;;4.40;;
73672;SDS011;61972;19.480;-99.240;2023-02-15T16:44:41;8.35;;;4.38;;
73672;SDS011;61972;19.480;-99.240;2023-02-15T16:47:14;8.18;;;4.53;;
73672;SDS011;61972;19.480;-99.240;2023-02-15T16:49:51;9.77;;;4.85;;
73672;SDS011;61972;19.480;-99.240;2023-02-15T16:52:23;7.90;;;4.53;;
73672;SDS011;61972;19.480;-99.240;2023-02-15T16:54:52;7.85;;;4.55;;
73672;SDS011;61972;19.480;-99.240;2023-02-15T16:57:22;8.55;;;4.75;;
73672;SDS011;61972;19.480;-99.240;2023-02-15T16:59:52;8.23;;;4.55;;
73672;SDS011;61972;19.480;-99.240;2023-02-15T17:02:23;9.02;;;4.30;;
73672;SDS011;61972;19.480;-99.240;2023-02-15T17:07:48;6.53;;;4.20;;
73672;SDS011;61972;19.480;-99.240;2023-02-15T17:10:38;8.25;;;4.55;;
73672;SDS011;61972;19.480;-99.240;2023-02-15T17:13:16;10.10;;;4.47;;
73672;SDS011;61972;19.480;-99.240;2023-02-15T17:15:44;8.15;;;4.53;;
73672;SDS011;61972;19.480;-99.240;2023-02-15T17:18:31;8.00;;;4.03;;
73672;SDS011;61972;19.480;-99.240;2023-02-15T17:21:23;8.65;;;4.50;;
73672;SDS011;61972;19.480;-99.240;2023-02-15T17:23:50;8.73;;;4.20;;
73672;SDS011;61972;19.480;-99.240;2023-02-15T17:26:24;5.85;;;4.00;;
73672;SDS011;61972;19.480;-99.240;2023-02-15T17:28:55;7.93;;;4.25;;
73672;SDS011;61972;19.480;-99.240;2023-02-15T17:31:25;6.80;;;4.07;;
73672;SDS011;61972;19.480;-99.240;2023-02-15T17:33:54;10.00;;;3.97;;
73672;SDS011;61972;19.480;-99.240;2023-02-15T17:36:22;8.35;;;3.90;;
73672;SDS011;61972;19.480;-99.240;2023-02-15T17:41:22;5.72;;;3.78;;
73672;SDS011;61972;19.480;-99.240;2023-02-15T17:43:56;6.80;;;3.33;;
73672;SDS011;61972;19.480;-99.240;2023-02-15T17:46:23;7.25;;;3.70;;
73672;SDS011;61972;19.480;-99.240;2023-02-15T17:48:51;5.85;;;3.55;;
73672;SDS011;61972;19.480;-99.240;2023-02-15T17:51:19;6.13;;;3.65;;
73672;SDS011;61972;19.480;-99.240;2023-02-15T17:53:46;6.75;;;3.90;;
73672;SDS011;61972;19.480;-99.240;2023-02-15T17:56:31;5.97;;;3.50;;
73672;SDS011;61972;19.480;-99.240;2023-02-15T17:58:58;7.10;;;3.60;;
73672;SDS011;61972;19.480;-99.240;2023-02-15T18:01:24;7.35;;;3.33;;
73672;SDS011;61972;19.480;-99.240;2023-02-15T18:04:12;7.30;;;3.58;;
73672;SDS011;61972;19.480;-99.240;2023-02-15T18:06:58;5.68;;;3.53;;
73672;SDS011;61972;19.480;-99.240;2023-02-15T18:09:43;6.97;;;3.67;;